createdAt,value
2024-01-30T00:00:49.344Z,72.91
2024-01-30T00:06:12.287Z,74.45
2024-01-30T00:11:14.040Z,73.85
2024-01-30T00:16:23.156Z,73.87
2024-01-30T00:21:25.685Z,74.36
2024-01-30T00:26:27.536Z,74.68
2024-01-30T00:31:30.122Z,74.96
2024-01-30T00:36:32.109Z,75.14
2024-01-30T00:41:33.817Z,74.67
2024-01-30T00:46:35.684Z,74.47
2024-01-30T00:51:37.547Z,74.41
2024-01-30T00:56:39.559Z,74.34
2024-01-30T01:01:43.489Z,74.87
2024-01-30T01:06:45.712Z,75.23
2024-01-30T01:11:48.389Z,74.95
2024-01-30T01:16:52.796Z,74.72
2024-01-30T01:21:54.743Z,74.83
2024-01-30T01:26:57.851Z,74.72
2024-01-30T01:31:59.740Z,74.30
2024-01-30T01:37:01.647Z,73.85
2024-01-30T01:42:03.868Z,74.07
2024-01-30T01:47:05.732Z,74.65
2024-01-30T01:52:07.782Z,75.21
2024-01-30T01:57:09.701Z,75.50
2024-01-30T02:02:12.661Z,75.40
2024-01-30T02:07:14.661Z,74.76
2024-01-30T02:12:16.595Z,74.12
2024-01-30T02:17:18.486Z,73.61
2024-01-30T02:22:21.649Z,73.72
2024-01-30T02:27:23.751Z,73.98
2024-01-30T02:32:25.618Z,74.58
2024-01-30T02:37:27.514Z,74.58
2024-01-30T02:42:29.395Z,74.42
2024-01-30T02:47:31.303Z,73.84
2024-01-30T02:52:33.302Z,74.30
2024-01-30T02:57:35.136Z,74.65
2024-01-30T03:02:39.062Z,74.40
2024-01-30T03:07:41.126Z,74.00
2024-01-30T03:12:43.013Z,73.80
2024-01-30T03:17:45.054Z,73.66
2024-01-30T03:22:46.870Z,73.91
2024-01-30T03:27:48.660Z,73.91
2024-01-30T03:32:50.946Z,76.14
2024-01-30T03:37:52.845Z,74.96
2024-01-30T03:42:54.697Z,75.18
2024-01-30T03:47:56.523Z,75.83
2024-01-30T03:52:58.487Z,75.15
2024-01-30T03:58:00.359Z,74.48
2024-01-30T04:03:02.446Z,74.18
2024-01-30T04:08:04.741Z,74.18
2024-01-30T04:13:08.144Z,74.94
2024-01-30T04:18:11.882Z,74.32
2024-01-30T04:23:13.662Z,74.33
2024-01-30T04:28:15.584Z,74.33
2024-01-30T04:33:19.008Z,74.15
2024-01-30T04:38:20.758Z,74.69
2024-01-30T04:43:22.502Z,74.28
2024-01-30T04:48:24.572Z,73.88
2024-01-30T04:53:26.298Z,74.03
2024-01-30T04:58:28.141Z,73.74
2024-01-30T05:03:34.434Z,74.65
2024-01-30T05:08:37.446Z,74.95
2024-01-30T05:13:42.085Z,75.50
2024-01-30T05:18:44.031Z,74.97
2024-01-30T05:23:45.986Z,74.73
2024-01-30T05:28:48.755Z,74.90
2024-01-30T05:33:50.799Z,76.03
2024-01-30T05:38:52.834Z,75.04
2024-01-30T05:43:54.872Z,74.90
2024-01-30T05:48:56.685Z,75.40
2024-01-30T05:53:58.548Z,74.93
2024-01-30T05:59:00.420Z,74.05
2024-01-30T06:04:02.608Z,74.23
2024-01-30T06:09:04.580Z,74.38
2024-01-30T06:14:09.658Z,74.30
2024-01-30T06:19:11.534Z,74.38
2024-01-30T06:24:13.439Z,74.88
2024-01-30T06:29:19.941Z,73.99
2024-01-30T06:34:22.345Z,73.93
2024-01-30T06:39:24.280Z,73.79
2024-01-30T06:44:26.146Z,73.99
2024-01-30T06:49:28.136Z,74.32
2024-01-30T06:54:30.031Z,75.93
2024-01-30T06:59:32.287Z,77.35
2024-01-30T07:04:34.346Z,75.41
2024-01-30T07:09:36.993Z,74.70
2024-01-30T07:14:38.881Z,74.26
2024-01-30T07:19:40.737Z,73.79
2024-01-30T07:24:48.795Z,74.19
2024-01-30T07:29:50.534Z,74.14
2024-01-30T07:35:02.500Z,74.13
2024-01-30T07:40:09.692Z,74.59
2024-01-30T07:45:11.619Z,75.74
2024-01-30T07:50:13.588Z,76.14
2024-01-30T07:55:15.422Z,75.58
2024-01-30T08:00:17.935Z,76.27
2024-01-30T08:05:19.926Z,75.39
2024-01-30T08:10:22.070Z,74.47
2024-01-30T08:15:23.996Z,75.31
2024-01-30T08:20:26.207Z,75.67
2024-01-30T08:25:28.055Z,75.31
2024-01-30T08:30:30.028Z,74.43
2024-01-30T08:35:34.173Z,74.63
2024-01-30T08:40:36.250Z,74.53
2024-01-30T08:45:38.215Z,72.13
2024-01-30T08:50:39.987Z,69.84
2024-01-30T08:55:41.771Z,69.51
2024-01-30T09:00:43.649Z,67.18
2024-01-30T09:05:45.550Z,67.30
2024-01-30T09:10:47.529Z,67.72
2024-01-30T09:15:49.653Z,65.78
2024-01-30T09:20:51.583Z,65.23
2024-01-30T09:25:53.431Z,64.04
2024-01-30T09:30:55.435Z,62.51
2024-01-30T09:35:57.344Z,62.72
2024-01-30T09:41:02.186Z,61.90
2024-01-30T09:46:04.352Z,61.13
2024-01-30T09:51:06.190Z,60.40
2024-01-30T09:56:08.457Z,59.84
2024-01-30T10:01:11.180Z,60.53
2024-01-30T10:06:14.499Z,59.69
2024-01-30T10:11:16.450Z,59.16
2024-01-30T10:16:18.385Z,58.69
2024-01-30T10:21:20.344Z,56.94
2024-01-30T10:26:22.111Z,56.84
2024-01-30T10:31:24.999Z,56.08
2024-01-30T10:36:30.268Z,55.36
2024-01-30T10:41:34.407Z,55.61
2024-01-30T10:46:38.981Z,55.70
2024-01-30T10:51:41.620Z,54.34
2024-01-30T10:56:43.614Z,55.46
2024-01-30T11:01:46.155Z,55.48
2024-01-30T11:06:50.099Z,55.47
2024-01-30T11:12:02.449Z,55.13
2024-01-30T11:17:04.584Z,55.47
2024-01-30T11:22:12.540Z,54.84
2024-01-30T11:27:15.792Z,54.26
2024-01-30T11:32:24.725Z,53.99
2024-01-30T11:37:28.159Z,53.93
2024-01-30T11:42:30.913Z,53.31
2024-01-30T11:47:39.495Z,53.25
2024-01-30T11:52:43.805Z,52.94
2024-01-30T11:57:46.044Z,52.97
2024-01-30T12:02:51.961Z,52.72
2024-01-30T12:07:53.980Z,52.62
2024-01-30T12:12:56.436Z,52.27
2024-01-30T12:18:08.884Z,52.16
2024-01-30T12:23:12.792Z,51.30
2024-01-30T12:28:16.469Z,51.64
2024-01-30T12:33:21.552Z,51.30
2024-01-30T12:38:25.199Z,50.97
2024-01-30T12:43:34.979Z,50.10
2024-01-30T12:48:40.464Z,49.41
2024-01-30T12:53:42.347Z,49.42
2024-01-30T12:58:45.350Z,48.69
2024-01-30T13:03:48.409Z,47.96
2024-01-30T13:08:50.318Z,48.31
2024-01-30T13:13:53.594Z,48.69
2024-01-30T13:18:56.212Z,48.23
2024-01-30T13:23:58.240Z,47.48
2024-01-30T13:29:02.236Z,48.17
2024-01-30T13:34:07.024Z,47.75
2024-01-30T13:39:11.341Z,47.84
2024-01-30T13:44:13.292Z,47.86
2024-01-30T13:49:15.171Z,48.37
2024-01-30T13:54:17.286Z,48.37
2024-01-30T13:59:24.248Z,47.70
2024-01-30T14:04:26.190Z,47.16
2024-01-30T14:09:29.574Z,48.12
2024-01-30T14:14:31.400Z,48.12
2024-01-30T14:19:34.749Z,48.31
2024-01-30T14:24:37.987Z,48.38
2024-01-30T14:29:40.067Z,48.74
2024-01-30T14:34:42.327Z,48.80
2024-01-30T14:39:44.403Z,48.57
2024-01-30T14:44:46.132Z,48.73
2024-01-30T14:49:48.097Z,50.26
2024-01-30T14:54:50.140Z,51.43
2024-01-30T14:59:52.083Z,52.23
2024-01-30T15:04:56.508Z,53.89
2024-01-30T15:09:58.431Z,55.03
2024-01-30T15:15:02.055Z,57.08
2024-01-30T15:20:04.817Z,58.34
2024-01-30T15:25:07.250Z,60.18
2024-01-30T15:30:11.997Z,59.89
2024-01-30T15:35:14.045Z,59.44
2024-01-30T15:40:16.393Z,60.34
2024-01-30T15:45:18.209Z,60.07
2024-01-30T15:50:20.170Z,61.00
2024-01-30T15:55:21.978Z,62.13
2024-01-30T16:00:23.964Z,63.43
2024-01-30T16:05:25.753Z,63.28
2024-01-30T16:10:27.810Z,62.83
2024-01-30T16:15:29.678Z,63.04
2024-01-30T16:20:31.642Z,63.46
2024-01-30T16:25:33.677Z,63.85
2024-01-30T16:30:35.562Z,64.61
2024-01-30T16:35:45.531Z,66.27
2024-01-30T16:40:50.525Z,66.52
2024-01-30T16:45:52.344Z,66.52
2024-01-30T16:50:54.161Z,66.47
2024-01-30T16:55:55.957Z,66.67
2024-01-30T17:00:58.341Z,67.42
2024-01-30T17:06:06.087Z,67.58
2024-01-30T17:11:09.591Z,67.25
2024-01-30T17:16:12.353Z,68.53
2024-01-30T17:21:21.154Z,68.75
2024-01-30T17:26:23.099Z,69.12
2024-01-30T17:31:25.789Z,68.97
2024-01-30T17:36:27.601Z,68.87
2024-01-30T17:41:29.462Z,68.20
2024-01-30T17:46:32.094Z,69.33
2024-01-30T17:51:34.180Z,69.81
2024-01-30T17:56:36.728Z,69.11
2024-01-30T18:01:38.709Z,68.62
2024-01-30T18:06:40.613Z,68.40
2024-01-30T18:11:42.555Z,67.38
2024-01-30T18:16:44.526Z,67.69
2024-01-30T18:21:46.475Z,67.83
2024-01-30T18:26:48.342Z,67.75
2024-01-30T18:31:50.520Z,67.89
2024-01-30T18:36:52.674Z,67.79
2024-01-30T18:41:54.866Z,67.25
2024-01-30T18:46:56.735Z,67.12
2024-01-30T18:51:59.958Z,66.27
2024-01-30T18:57:01.906Z,67.05
2024-01-30T19:02:06.968Z,67.48
2024-01-30T19:07:09.457Z,66.28
2024-01-30T19:12:12.351Z,67.35
2024-01-30T19:17:15.325Z,66.04
2024-01-30T19:22:19.414Z,65.43
2024-01-30T19:27:21.301Z,65.13
2024-01-30T19:32:23.658Z,65.30
2024-01-30T19:37:25.857Z,65.89
2024-01-30T19:42:30.122Z,65.33
2024-01-30T19:47:31.886Z,65.64
2024-01-30T19:52:34.708Z,65.93
2024-01-30T19:57:39.408Z,65.79
2024-01-30T20:02:41.708Z,66.57
2024-01-30T20:07:43.641Z,67.13
2024-01-30T20:12:45.611Z,66.88
2024-01-30T20:17:48.332Z,67.09
2024-01-30T20:22:50.139Z,66.54
2024-01-30T20:27:52.086Z,66.45
2024-01-30T20:32:55.549Z,66.33
2024-01-30T20:37:58.187Z,67.21
2024-01-30T20:43:02.497Z,66.90
2024-01-30T20:48:04.936Z,66.46
2024-01-30T20:53:27.202Z,65.99
2024-01-30T20:58:29.167Z,65.85
2024-01-30T21:03:32.477Z,66.09
2024-01-30T21:08:34.411Z,66.40
2024-01-30T21:13:36.860Z,66.42
2024-01-30T21:18:41.537Z,65.94
2024-01-30T21:23:46.400Z,66.04
2024-01-30T21:28:48.400Z,65.90
2024-01-30T21:33:52.342Z,66.29
2024-01-30T21:38:54.372Z,65.66
2024-01-30T21:43:56.148Z,65.07
2024-01-30T21:48:58.001Z,64.13
2024-01-30T21:53:59.960Z,63.59
2024-01-30T21:59:04.788Z,62.83
2024-01-30T22:04:07.290Z,62.51
2024-01-30T22:09:10.247Z,62.61
2024-01-30T22:14:12.069Z,63.30
2024-01-30T22:19:14.320Z,63.11
2024-01-30T22:24:16.163Z,63.12
2024-01-30T22:29:17.954Z,62.95
2024-01-30T22:34:19.900Z,63.24
2024-01-30T22:39:21.745Z,62.68
2024-01-30T22:44:23.792Z,63.22
2024-01-30T22:49:25.856Z,63.86
2024-01-30T22:54:27.754Z,63.85
2024-01-30T22:59:29.614Z,64.22
2024-01-30T23:04:31.538Z,65.38
2024-01-30T23:09:36.136Z,65.26
2024-01-30T23:14:38.023Z,64.91
2024-01-30T23:19:39.988Z,64.62
2024-01-30T23:24:41.780Z,65.31
2024-01-30T23:29:43.580Z,65.46
2024-01-30T23:34:45.411Z,65.30
2024-01-30T23:39:47.158Z,65.18
2024-01-30T23:44:48.949Z,65.45
2024-01-30T23:49:50.966Z,65.57
2024-01-30T23:54:52.708Z,65.28
2024-01-30T23:59:57.358Z,65.30
